Terminal Aerodrome Forecast
Issued by NWS

Home | Current Version | Previous Version | Text Only | Print | Product List | Glossary On
Versions: 1 2 3 4 5 6 7 8 9 10 11 12 13 14 15 16
000
FTUS43 KDMX 241138
TAFMCW
TAF
KMCW 241138Z 2412/2512 11013KT P6SM VCSH OVC050
     FM241500 12010KT P6SM -SHRA SCT015 OVC025
     FM241900 35011KT P6SM BKN030
     FM242100 33014KT P6SM BKN100
     FM250100 32007KT P6SM SKC=

USA.gov is the U.S. government's official web portal to all federal, state and local government web resources and services.